Time;durP1;ratioP1;P1;durP2;ratioP2;P2;SDS_P1;SDS_P2;PMS_P1;PMS_P2;Temp;Humidity;BMP_temperature;BMP_pressure;BME280_temperature;BME280_humidity;BME280_pressure;Samples;Min_cycle;Max_cycle;Signal;HPM_P1;HPM_P2
2021/12/21 00:00:11;;;;;;;29.45;12.90;;;-2.20;99.90;;;;;;4945507;28;20059;-76
2021/12/21 00:02:42;;;;;;;32.60;12.85;;;-2.20;99.90;;;;;;4947957;28;20058;-75
2021/12/21 00:05:13;;;;;;;27.88;11.57;;;-2.20;99.90;;;;;;4951364;28;20042;-75
2021/12/21 00:07:39;;;;;;;30.85;12.48;;;-2.30;99.90;;;;;;4948768;28;20031;-75
2021/12/21 00:10:05;;;;;;;31.10;11.27;;;-2.30;99.90;;;;;;4951202;28;20039;-76
2021/12/21 00:12:37;;;;;;;32.00;10.40;;;-2.40;99.90;;;;;;4949213;28;20113;-76
2021/12/21 00:15:19;;;;;;;29.05;10.13;;;-2.40;99.90;;;;;;4979883;28;20023;-76
2021/12/21 00:25:19;;;;;;;27.48;8.98;;;-2.50;99.90;;;;;;4950885;28;20058;-76
2021/12/21 00:27:47;;;;;;;21.92;10.40;;;-2.50;99.90;;;;;;4949021;29;20027;-76
2021/12/21 00:30:13;;;;;;;22.50;9.77;;;-2.50;99.90;;;;;;4948318;28;20569;-74
2021/12/21 00:32:39;;;;;;;26.08;10.75;;;-2.60;99.90;;;;;;4950028;28;20019;-78
2021/12/21 00:35:06;;;;;;;23.30;9.88;;;-2.60;99.90;;;;;;4949497;28;20050;-76
2021/12/21 00:37:32;;;;;;;22.40;9.65;;;-2.60;99.90;;;;;;4934046;29;20070;-76
2021/12/21 00:39:58;;;;;;;25.08;10.57;;;-2.60;99.90;;;;;;4966332;28;20054;-76
2021/12/21 00:42:26;;;;;;;25.33;12.68;;;-2.60;99.90;;;;;;4968691;28;20020;-76
2021/12/21 00:44:58;;;;;;;25.35;10.52;;;-2.50;99.90;;;;;;4983010;28;20440;-75
2021/12/21 00:47:24;;;;;;;22.83;11.50;;;-2.50;99.90;;;;;;4945628;29;20178;-75
2021/12/21 00:49:59;;;;;;;23.83;10.32;;;-2.60;99.90;;;;;;4951160;28;20074;-75
2021/12/21 00:52:26;;;;;;;24.10;11.15;;;-2.60;99.90;;;;;;4976055;28;20453;-74
2021/12/21 00:54:52;;;;;;;18.55;9.80;;;-2.60;99.90;;;;;;4957859;28;20035;-74
2021/12/21 00:57:18;;;;;;;27.23;10.35;;;-2.70;99.90;;;;;;4948263;28;20055;-74
2021/12/21 00:59:44;;;;;;;27.98;10.15;;;-2.70;99.90;;;;;;4954436;28;20027;-74
2021/12/21 01:02:10;;;;;;;24.75;9.80;;;-2.80;99.90;;;;;;4950089;28;20032;-74
2021/12/21 01:04:41;;;;;;;24.10;8.75;;;-2.80;99.90;;;;;;4954232;28;20035;-73
2021/12/21 01:13:12;;;;;;;18.23;8.25;;;-2.80;99.90;;;;;;4948842;28;20057;-75
2021/12/21 01:15:32;;;;;;;24.50;8.68;;;-2.90;99.90;;;;;;4946871;28;20556;-76
2021/12/21 01:18:08;;;;;;;13.80;8.23;;;-2.90;99.90;;;;;;4952904;28;20113;-76
2021/12/21 01:20:38;;;;;;;18.75;8.30;;;-2.90;99.90;;;;;;4955687;28;20500;-77
2021/12/21 01:31:37;;;;;;;;;;;;;;;;;;;;;
2021/12/21 01:42:16;;;;;;;20.70;9.40;;;-3.00;99.90;;;;;;4950016;28;20043;-76
2021/12/21 01:49:57;;;;;;;18.98;9.48;;;-3.00;99.90;;;;;;4947999;28;20037;-75
2021/12/21 01:52:25;;;;;;;20.15;9.35;;;-3.10;99.90;;;;;;4949752;28;20107;-75
2021/12/21 01:54:52;;;;;;;25.85;10.82;;;-3.10;99.90;;;;;;4953413;28;20576;-75
2021/12/21 01:57:18;;;;;;;23.38;10.10;;;-3.10;99.90;;;;;;4950816;28;20055;-75
2021/12/21 01:59:45;;;;;;;22.42;10.65;;;-3.10;99.90;;;;;;4947135;28;20034;-75
2021/12/21 02:02:15;;;;;;;24.95;9.93;;;-3.00;99.90;;;;;;4950943;28;20070;-72
2021/12/21 02:04:41;;;;;;;18.05;10.48;;;-3.00;99.90;;;;;;4970115;28;20031;-73
2021/12/21 02:07:12;;;;;;;24.40;10.57;;;-3.00;99.90;;;;;;4946321;28;20027;-74
2021/12/21 02:09:38;;;;;;;25.33;10.50;;;-3.00;99.90;;;;;;4953205;29;20122;-73
2021/12/21 02:12:16;;;;;;;22.00;10.55;;;-3.00;99.90;;;;;;4955235;28;20073;-73
2021/12/21 02:14:47;;;;;;;23.38;11.73;;;-3.00;99.90;;;;;;4968902;28;20027;-73
2021/12/21 02:17:41;;;;;;;25.95;12.40;;;-3.00;99.90;;;;;;4938131;29;20024;-75
2021/12/21 02:20:19;;;;;;;32.72;12.90;;;-2.90;99.90;;;;;;4957251;28;20445;-75
2021/12/21 02:23:11;;;;;;;26.33;11.77;;;-2.80;99.90;;;;;;4957116;28;20019;-75
2021/12/21 02:26:02;;;;;;;32.78;13.02;;;-2.80;99.90;;;;;;4956366;29;20043;-73
2021/12/21 02:28:34;;;;;;;38.88;17.13;;;-2.80;99.90;;;;;;4955975;29;20031;-73
2021/12/21 02:31:17;;;;;;;31.50;13.65;;;-2.70;99.90;;;;;;4956626;28;20091;-74
2021/12/21 02:33:45;;;;;;;29.23;11.98;;;-2.70;99.90;;;;;;4956139;28;20110;-73
2021/12/21 02:36:10;;;;;;;32.55;13.98;;;-2.60;99.90;;;;;;4956489;28;20041;-73
2021/12/21 02:38:39;;;;;;;31.48;13.80;;;-2.60;99.90;;;;;;4955732;29;20477;-74
2021/12/21 02:41:08;;;;;;;32.17;13.30;;;-2.50;99.90;;;;;;4958168;28;20082;-73
2021/12/21 02:43:37;;;;;;;29.92;13.32;;;-2.50;99.90;;;;;;4976462;28;20043;-74
2021/12/21 02:46:06;;;;;;;38.22;13.27;;;-2.50;99.90;;;;;;4957681;28;20480;-73
2021/12/21 02:48:33;;;;;;;33.53;12.95;;;-2.50;99.90;;;;;;4955923;29;20035;-72
2021/12/21 02:51:03;;;;;;;28.75;12.85;;;-2.40;99.90;;;;;;4972064;28;20027;-73
2021/12/21 02:53:34;;;;;;;29.75;12.38;;;-2.40;99.90;;;;;;4960095;28;20058;-73
2021/12/21 02:56:00;;;;;;;31.90;11.90;;;-2.40;99.90;;;;;;4955918;28;20027;-74
2021/12/21 02:58:26;;;;;;;34.15;12.25;;;-2.40;99.90;;;;;;4956051;28;20027;-74
2021/12/21 03:00:53;;;;;;;32.15;12.77;;;-2.40;99.90;;;;;;4954602;29;20031;-74
2021/12/21 03:03:22;;;;;;;27.90;13.38;;;-2.40;99.90;;;;;;4986750;28;20065;-74
2021/12/21 03:05:54;;;;;;;33.17;11.15;;;-2.40;99.90;;;;;;4955163;28;20094;-73
2021/12/21 03:08:34;;;;;;;33.65;12.70;;;-2.50;99.90;;;;;;4950465;29;20118;-73
2021/12/21 03:16:25;;;;;;;29.42;12.23;;;-2.40;99.90;;;;;;4955753;29;20551;-73
2021/12/21 03:18:52;;;;;;;31.77;11.07;;;-2.50;99.90;;;;;;4985235;28;20027;-73
2021/12/21 03:21:18;;;;;;;27.33;13.68;;;-2.50;99.90;;;;;;4942798;29;20106;-73
2021/12/21 03:23:43;;;;;;;29.35;12.30;;;-2.50;99.90;;;;;;4958683;28;20081;-73
2021/12/21 03:26:10;;;;;;;27.15;14.60;;;-2.50;99.90;;;;;;4953744;28;20389;-73
2021/12/21 03:28:35;;;;;;;34.47;13.07;;;-2.50;99.90;;;;;;4957095;28;20380;-73
2021/12/21 03:31:02;;;;;;;29.95;13.55;;;-2.40;99.90;;;;;;4949220;29;20031;-73
2021/12/21 03:33:28;;;;;;;25.88;12.65;;;-2.50;99.90;;;;;;4954574;28;20059;-72
2021/12/21 03:35:56;;;;;;;34.53;12.55;;;-2.40;99.90;;;;;;4953454;29;20075;-73
2021/12/21 03:38:22;;;;;;;26.17;12.30;;;-2.40;99.90;;;;;;4960204;28;20032;-72
2021/12/21 03:40:48;;;;;;;31.02;12.95;;;-2.40;99.90;;;;;;4954322;29;20184;-72
2021/12/21 03:43:17;;;;;;;33.60;14.02;;;-2.40;99.90;;;;;;4954648;28;20093;-72
2021/12/21 03:45:51;;;;;;;33.65;14.60;;;-2.40;99.90;;;;;;4948558;28;20117;-73
2021/12/21 03:48:17;;;;;;;30.08;13.13;;;-2.40;99.90;;;;;;4952306;28;20365;-72
2021/12/21 03:50:43;;;;;;;22.30;11.45;;;-2.40;99.90;;;;;;4954901;29;20074;-73
2021/12/21 03:53:12;;;;;;;29.00;12.90;;;-2.40;99.90;;;;;;4953880;28;20050;-73
2021/12/21 03:55:37;;;;;;;29.75;12.93;;;-2.40;99.90;;;;;;4955180;28;20031;-72
2021/12/21 03:58:06;;;;;;;38.63;13.15;;;-2.40;99.90;;;;;;4954990;28;20102;-73
2021/12/21 04:00:32;;;;;;;29.75;13.00;;;-2.50;99.90;;;;;;4966061;28;20054;-73
2021/12/21 04:02:57;;;;;;;22.98;10.90;;;-2.50;99.90;;;;;;4959798;28;20031;-74
2021/12/21 04:05:23;;;;;;;25.17;10.27;;;-2.40;99.90;;;;;;4954639;28;20032;-73
2021/12/21 04:07:52;;;;;;;26.77;12.32;;;-2.50;99.90;;;;;;4953058;28;20082;-73
2021/12/21 04:10:20;;;;;;;32.75;13.73;;;-2.50;99.90;;;;;;4955512;28;20027;-74
2021/12/21 04:12:49;;;;;;;30.35;12.40;;;-2.50;99.90;;;;;;4969549;28;20031;-73
2021/12/21 04:15:16;;;;;;;27.45;11.45;;;-2.60;99.90;;;;;;4954314;29;20411;-73
2021/12/21 04:17:54;;;;;;;26.73;11.57;;;-2.60;99.90;;;;;;4953870;29;20035;-75
2021/12/21 04:20:20;;;;;;;27.65;11.18;;;-2.60;99.90;;;;;;4950586;29;20035;-74
2021/12/21 04:22:46;;;;;;;26.45;11.50;;;-2.70;99.90;;;;;;4954698;28;20362;-74
2021/12/21 04:25:12;;;;;;;24.17;10.30;;;-2.70;99.90;;;;;;4954927;29;20027;-74
2021/12/21 04:27:38;;;;;;;18.10;9.90;;;-2.70;99.90;;;;;;4953445;28;20027;-74
2021/12/21 04:30:04;;;;;;;19.45;9.02;;;-2.80;99.90;;;;;;4954639;28;20349;-74
2021/12/21 04:32:33;;;;;;;21.05;9.07;;;-2.80;99.90;;;;;;4954586;28;20028;-75
2021/12/21 04:34:59;;;;;;;27.38;10.30;;;-2.90;99.90;;;;;;4955088;28;20055;-74
2021/12/21 04:37:25;;;;;;;26.70;10.90;;;-2.90;99.90;;;;;;4954616;28;20034;-74
2021/12/21 04:40:05;;;;;;;25.70;11.23;;;-3.00;99.90;;;;;;4954673;28;20397;-74
2021/12/21 04:42:31;;;;;;;21.33;10.38;;;-3.00;99.90;;;;;;4969167;28;20374;-75
2021/12/21 04:44:56;;;;;;;24.40;11.23;;;-3.00;99.90;;;;;;4954349;28;20026;-74
2021/12/21 04:47:22;;;;;;;20.67;10.05;;;-3.00;99.90;;;;;;4953379;28;20061;-74
2021/12/21 04:49:48;;;;;;;21.67;9.20;;;-3.10;99.90;;;;;;4954078;28;20027;-73
2021/12/21 04:52:14;;;;;;;18.67;9.80;;;-3.20;99.90;;;;;;4953977;28;20031;-74
2021/12/21 04:54:40;;;;;;;24.50;11.70;;;-3.20;99.90;;;;;;4954415;28;20082;-74
2021/12/21 04:57:06;;;;;;;35.95;15.50;;;-3.20;99.90;;;;;;4985422;28;20031;-74
2021/12/21 04:59:38;;;;;;;25.02;12.23;;;-3.20;99.90;;;;;;4952799;29;20239;-74
2021/12/21 05:02:13;;;;;;;20.83;9.70;;;-3.20;99.90;;;;;;4954146;28;20027;-74
2021/12/21 05:04:41;;;;;;;20.10;10.23;;;-3.20;99.90;;;;;;4952536;29;20027;-71
2021/12/21 05:07:07;;;;;;;18.88;9.38;;;-3.20;99.90;;;;;;4954014;28;20062;-73
2021/12/21 05:09:41;;;;;;;23.92;10.77;;;-3.20;99.90;;;;;;4954187;28;20059;-71
2021/12/21 05:12:10;;;;;;;20.25;10.02;;;-3.20;99.90;;;;;;4952978;29;20027;-71
2021/12/21 05:14:36;;;;;;;24.60;10.30;;;-3.20;99.90;;;;;;4954133;28;20031;-73
2021/12/21 05:17:02;;;;;;;21.60;10.20;;;-3.30;99.90;;;;;;4952893;29;20038;-73
2021/12/21 05:19:28;;;;;;;20.33;10.38;;;-3.30;99.90;;;;;;4952877;29;20063;-73
2021/12/21 05:21:53;;;;;;;27.17;10.63;;;-3.30;99.90;;;;;;4953929;28;20429;-73
2021/12/21 05:24:19;;;;;;;24.70;10.38;;;-3.30;99.90;;;;;;4958394;28;20019;-72
2021/12/21 05:26:48;;;;;;;21.85;10.60;;;-3.40;99.90;;;;;;4952674;29;20166;-73
2021/12/21 05:29:14;;;;;;;23.15;10.93;;;-3.30;99.90;;;;;;4952769;28;20027;-73
2021/12/21 05:31:42;;;;;;;19.77;10.27;;;-3.40;99.90;;;;;;4954179;28;20453;-73
2021/12/21 05:34:08;;;;;;;22.42;9.88;;;-3.40;99.90;;;;;;4953874;28;20034;-73
2021/12/21 05:36:34;;;;;;;20.73;9.65;;;-3.40;99.90;;;;;;4954071;28;20023;-73
2021/12/21 05:39:03;;;;;;;28.50;10.60;;;-3.40;99.90;;;;;;4954645;28;20082;-73
2021/12/21 05:42:05;;;;;;;18.35;8.98;;;-3.50;99.90;;;;;;4954447;28;20019;-72
2021/12/21 05:44:24;;;;;;;21.77;9.90;;;-3.50;99.90;;;;;;4957289;28;20313;-73
2021/12/21 05:46:54;;;;;;;19.20;9.25;;;-3.50;99.90;;;;;;4954305;28;20029;-73
2021/12/21 05:49:20;;;;;;;24.40;10.23;;;-3.60;99.90;;;;;;4950353;28;20101;-65
2021/12/21 05:51:47;;;;;;;19.58;9.68;;;-3.40;99.90;;;;;;4951043;28;20039;-67
2021/12/21 05:54:21;;;;;;;22.83;9.23;;;-3.40;99.90;;;;;;4951973;28;20107;-71
2021/12/21 05:56:47;;;;;;;17.40;8.23;;;-3.30;99.90;;;;;;4953836;29;20034;-72
2021/12/21 05:59:13;;;;;;;20.50;9.50;;;-3.40;99.90;;;;;;4951787;28;20035;-74
2021/12/21 06:01:39;;;;;;;20.98;9.13;;;-3.40;99.90;;;;;;4954861;28;20046;-74
2021/12/21 06:04:05;;;;;;;20.40;9.95;;;-3.40;99.90;;;;;;4957007;28;20031;-74
2021/12/21 06:06:32;;;;;;;18.00;9.00;;;-3.50;99.90;;;;;;4956675;28;20038;-74
2021/12/21 06:09:00;;;;;;;17.95;8.50;;;-3.50;99.90;;;;;;4953150;29;20118;-73
2021/12/21 06:11:26;;;;;;;18.58;7.93;;;-3.60;99.90;;;;;;4957387;28;20031;-73
2021/12/21 06:14:21;;;;;;;18.40;8.70;;;-3.60;99.90;;;;;;4956424;28;20038;-72
2021/12/21 06:25:51;;;;;;;16.63;8.35;;;-3.80;99.90;;;;;;4955708;29;20042;-73
2021/12/21 06:27:49;;;;;;;19.35;7.93;;;-3.90;99.90;;;;;;4950180;29;20035;-73
2021/12/21 06:30:15;;;;;;;15.35;7.15;;;-3.90;99.90;;;;;;4955977;28;20041;-72
2021/12/21 06:32:41;;;;;;;18.58;8.90;;;-3.90;99.90;;;;;;4955214;28;20507;-73
2021/12/21 06:35:08;;;;;;;19.10;8.18;;;-4.00;99.90;;;;;;4955846;28;20031;-72
2021/12/21 06:37:34;;;;;;;20.67;8.70;;;-4.00;99.90;;;;;;4952330;28;20028;-72
2021/12/21 06:40:00;;;;;;;20.25;11.07;;;-4.00;99.90;;;;;;4955348;28;20098;-71
2021/12/21 06:42:27;;;;;;;27.00;11.00;;;-4.00;99.90;;;;;;4950500;28;20054;-71
2021/12/21 06:44:57;;;;;;;22.00;11.10;;;-4.00;99.90;;;;;;4944804;28;20031;-72
2021/12/21 06:52:52;;;;;;;28.08;13.18;;;-3.90;99.90;;;;;;4967222;28;20044;-72
2021/12/21 06:55:18;;;;;;;27.42;13.48;;;-3.90;99.90;;;;;;4968707;28;20031;-73
2021/12/21 06:57:44;;;;;;;25.27;12.32;;;-3.80;99.90;;;;;;4955798;28;20038;-73
2021/12/21 07:00:15;;;;;;;27.77;14.30;;;-3.80;99.90;;;;;;4955715;28;20035;-73
2021/12/21 07:02:41;;;;;;;26.52;13.25;;;-3.80;99.90;;;;;;4950384;28;20059;-72
2021/12/21 07:05:12;;;;;;;26.58;11.60;;;-3.80;99.90;;;;;;4960373;28;20046;-73
2021/12/21 07:07:38;;;;;;;21.85;10.93;;;-3.80;99.90;;;;;;4953747;28;20121;-73
2021/12/21 07:10:08;;;;;;;25.27;11.98;;;-3.80;99.90;;;;;;4960732;28;20128;-72
2021/12/21 07:20:29;;;;;;;23.38;11.52;;;-3.90;99.90;;;;;;4954222;28;20027;-72
2021/12/21 07:22:55;;;;;;;24.17;10.95;;;-3.80;99.90;;;;;;4954988;28;20025;-73
2021/12/21 07:25:21;;;;;;;23.42;11.93;;;-3.80;99.90;;;;;;4965629;28;20035;-72
2021/12/21 07:27:47;;;;;;;25.75;12.70;;;-3.90;99.90;;;;;;4954725;28;20050;-72
2021/12/21 07:30:13;;;;;;;25.40;11.88;;;-3.90;99.90;;;;;;4955255;28;20035;-72
2021/12/21 07:32:39;;;;;;;25.45;12.20;;;-3.90;99.90;;;;;;4954255;28;20396;-71
2021/12/21 07:35:05;;;;;;;32.40;13.45;;;-3.90;99.90;;;;;;4956129;28;20035;-72
2021/12/21 07:37:31;;;;;;;32.55;13.27;;;-3.90;99.90;;;;;;4952715;28;20393;-72
2021/12/21 07:39:57;;;;;;;27.40;11.90;;;-3.90;99.90;;;;;;4953962;28;20031;-70
2021/12/21 07:42:23;;;;;;;26.15;11.93;;;-4.00;99.90;;;;;;4950821;29;20082;-72
2021/12/21 07:44:49;;;;;;;29.90;13.82;;;-3.90;99.90;;;;;;4953388;28;20070;-71
2021/12/21 07:47:17;;;;;;;24.73;12.00;;;-4.00;99.90;;;;;;4954487;28;20036;-70
2021/12/21 07:49:46;;;;;;;22.27;11.07;;;-3.90;99.90;;;;;;4955991;28;20037;-71
2021/12/21 07:52:12;;;;;;;23.05;12.18;;;-3.90;99.90;;;;;;4954286;28;20028;-72
2021/12/21 07:54:38;;;;;;;27.95;13.45;;;-3.90;99.90;;;;;;4955416;28;20047;-72
2021/12/21 07:57:08;;;;;;;23.27;11.57;;;-3.90;99.90;;;;;;4954163;28;20039;-72
2021/12/21 07:59:38;;;;;;;20.77;10.55;;;-4.00;99.90;;;;;;4953999;29;20038;-72
2021/12/21 08:02:10;;;;;;;27.92;12.00;;;-4.00;99.90;;;;;;4953905;29;20027;-71
2021/12/21 08:04:37;;;;;;;22.45;10.45;;;-3.90;99.90;;;;;;4951944;28;20027;-71
2021/12/21 08:07:10;;;;;;;26.35;12.07;;;-4.00;99.90;;;;;;4950617;28;20764;-71
2021/12/21 08:09:40;;;;;;;24.20;12.35;;;-4.00;99.90;;;;;;4972161;28;20984;-71
2021/12/21 08:14:38;;;;;;;24.08;11.60;;;-4.00;99.90;;;;;;4954030;28;20031;-71
2021/12/21 08:17:04;;;;;;;21.67;10.57;;;-4.00;99.90;;;;;;4953791;28;20031;-71
2021/12/21 08:19:29;;;;;;;23.25;11.98;;;-4.00;99.90;;;;;;4953496;28;20031;-72
2021/12/21 08:21:55;;;;;;;21.92;11.57;;;-4.00;99.90;;;;;;4952654;28;20027;-72
2021/12/21 08:24:21;;;;;;;21.83;11.57;;;-3.90;99.90;;;;;;4952914;28;20104;-74
2021/12/21 08:26:47;;;;;;;21.58;11.10;;;-3.90;99.90;;;;;;4948638;28;20549;-73
2021/12/21 08:29:12;;;;;;;20.50;10.25;;;-3.90;99.90;;;;;;4954571;28;20039;-73
2021/12/21 08:31:38;;;;;;;20.55;10.98;;;-3.90;99.90;;;;;;4954635;28;20481;-73
2021/12/21 08:34:04;;;;;;;26.65;11.80;;;-3.80;99.90;;;;;;4967955;28;20074;-73
2021/12/21 08:36:31;;;;;;;25.73;11.18;;;-3.80;99.90;;;;;;4954193;28;20381;-72
2021/12/21 08:38:57;;;;;;;19.95;10.73;;;-3.80;99.90;;;;;;4952571;28;20039;-73
2021/12/21 08:41:23;;;;;;;21.60;11.55;;;-3.70;99.90;;;;;;4952810;28;20477;-73
2021/12/21 08:43:51;;;;;;;26.33;12.27;;;-3.60;99.90;;;;;;4952177;28;20465;-73
2021/12/21 08:46:25;;;;;;;26.08;11.50;;;-3.60;99.90;;;;;;4953712;28;20070;-73
2021/12/21 08:48:51;;;;;;;23.15;11.10;;;-3.50;99.90;;;;;;4951742;28;20023;-73
2021/12/21 08:51:17;;;;;;;27.10;11.05;;;-3.40;99.90;;;;;;4950710;28;20557;-72
2021/12/21 08:53:42;;;;;;;22.42;11.40;;;-3.40;99.90;;;;;;4943719;28;20485;-74
2021/12/21 08:56:09;;;;;;;23.58;11.35;;;-3.30;99.90;;;;;;4953368;28;20058;-74
2021/12/21 08:58:38;;;;;;;19.95;10.02;;;-3.30;99.90;;;;;;4952090;29;20030;-74
2021/12/21 09:01:04;;;;;;;21.38;10.20;;;-3.20;99.90;;;;;;4953376;28;20030;-74
2021/12/21 09:03:31;;;;;;;22.10;11.73;;;-3.20;99.90;;;;;;4951985;28;20493;-74
2021/12/21 09:05:57;;;;;;;21.65;11.27;;;-3.10;99.90;;;;;;4953027;28;20473;-73
2021/12/21 09:08:23;;;;;;;25.85;13.00;;;-3.10;99.90;;;;;;4953471;28;20474;-73
2021/12/21 09:10:49;;;;;;;21.48;10.98;;;-3.00;99.90;;;;;;4948624;28;20031;-72
2021/12/21 09:13:15;;;;;;;24.73;12.10;;;-3.00;99.90;;;;;;4952205;28;20074;-70
2021/12/21 09:15:40;;;;;;;22.92;11.38;;;-2.90;99.90;;;;;;4945236;28;20070;-71
2021/12/21 09:18:07;;;;;;;29.40;12.73;;;-2.90;99.90;;;;;;4954858;28;20089;-73
2021/12/21 09:20:34;;;;;;;22.63;12.30;;;-2.90;99.90;;;;;;4956556;28;20045;-74
2021/12/21 09:23:00;;;;;;;22.77;11.50;;;-2.80;99.90;;;;;;4954413;28;20118;-73
2021/12/21 09:25:26;;;;;;;25.35;11.45;;;-2.80;99.90;;;;;;4953975;28;20114;-73
2021/12/21 09:27:53;;;;;;;24.08;12.73;;;-2.80;99.90;;;;;;4954147;28;20031;-72
2021/12/21 09:30:21;;;;;;;26.73;12.30;;;-2.70;99.90;;;;;;4949709;29;20038;-71
2021/12/21 09:32:47;;;;;;;31.00;14.55;;;-2.70;99.90;;;;;;4952446;28;20035;-73
2021/12/21 09:35:13;;;;;;;25.88;12.15;;;-2.60;99.90;;;;;;4955552;28;20054;-74
2021/12/21 09:37:39;;;;;;;23.88;11.55;;;-2.60;99.90;;;;;;4955532;28;20066;-73
2021/12/21 09:40:16;;;;;;;26.55;12.88;;;-2.50;99.90;;;;;;4955820;28;20560;-74
2021/12/21 09:42:46;;;;;;;23.73;13.10;;;-2.50;99.90;;;;;;4955274;28;20374;-74
2021/12/21 09:45:12;;;;;;;25.60;12.57;;;-2.40;99.90;;;;;;4956265;28;20028;-74
2021/12/21 09:47:41;;;;;;;26.70;12.93;;;-2.30;99.90;;;;;;4956263;28;20026;-74
2021/12/21 09:50:09;;;;;;;28.55;12.52;;;-2.30;99.90;;;;;;4956420;28;20027;-74
2021/12/21 09:52:41;;;;;;;21.02;11.65;;;-2.20;99.90;;;;;;4954856;28;20078;-74
2021/12/21 09:55:10;;;;;;;28.88;14.38;;;-2.20;99.90;;;;;;4971079;28;20113;-74
2021/12/21 09:57:46;;;;;;;33.08;12.68;;;-2.20;99.90;;;;;;4956486;28;20069;-74
2021/12/21 10:00:20;;;;;;;24.20;13.85;;;-2.10;99.90;;;;;;4958792;28;20028;-74
2021/12/21 10:02:46;;;;;;;23.67;13.48;;;-2.10;99.90;;;;;;4956264;28;20038;-73
2021/12/21 10:05:16;;;;;;;27.35;13.68;;;-2.10;99.90;;;;;;4969781;28;20027;-74
2021/12/21 10:07:59;;;;;;;28.77;12.13;;;-2.20;99.90;;;;;;4956746;28;20553;-72
2021/12/21 10:10:33;;;;;;;24.08;12.40;;;-2.10;99.90;;;;;;4948668;29;20041;-73
2021/12/21 10:13:28;;;;;;;27.67;13.20;;;-2.00;99.90;;;;;;4956473;28;20471;-73
2021/12/21 10:16:04;;;;;;;28.45;14.00;;;-1.90;99.90;;;;;;4936487;28;20392;-73
2021/12/21 10:18:35;;;;;;;29.52;15.20;;;-1.90;99.90;;;;;;4954518;29;20038;-73
2021/12/21 10:21:04;;;;;;;30.08;13.15;;;-1.80;99.90;;;;;;4955995;28;20062;-73
2021/12/21 10:23:33;;;;;;;26.75;12.82;;;-1.90;99.90;;;;;;4954497;28;20019;-73
2021/12/21 10:26:23;;;;;;;29.50;13.75;;;-1.90;99.90;;;;;;4954531;29;20023;-72
2021/12/21 10:28:50;;;;;;;31.08;14.95;;;-1.90;99.90;;;;;;4952794;28;20031;-72
2021/12/21 10:31:36;;;;;;;34.20;14.32;;;-1.90;99.90;;;;;;4970668;28;20126;-73
2021/12/21 10:34:04;;;;;;;37.67;15.52;;;-1.80;99.90;;;;;;4955810;28;20156;-72
2021/12/21 10:36:30;;;;;;;32.08;15.82;;;-1.80;99.90;;;;;;4955607;28;20028;-73
2021/12/21 10:39:01;;;;;;;32.20;15.73;;;-1.70;99.90;;;;;;4955339;28;20023;-73
2021/12/21 10:41:44;;;;;;;29.65;14.90;;;-1.60;99.90;;;;;;4955851;28;20035;-73
2021/12/21 10:44:21;;;;;;;32.45;14.52;;;-1.50;99.90;;;;;;4954264;29;20027;-72
2021/12/21 10:46:54;;;;;;;30.30;13.50;;;-1.50;99.90;;;;;;4954323;29;20389;-75
2021/12/21 10:49:28;;;;;;;26.58;12.77;;;-1.40;99.90;;;;;;4955494;28;20020;-72
2021/12/21 10:52:01;;;;;;;20.25;10.10;;;-1.30;99.90;;;;;;4950461;28;20031;-73
2021/12/21 10:54:35;;;;;;;22.98;10.95;;;-1.30;99.90;;;;;;4936546;29;20028;-73
2021/12/21 10:57:10;;;;;;;19.27;10.23;;;-1.40;99.90;;;;;;4936068;29;20031;-73
2021/12/21 10:59:47;;;;;;;26.83;12.30;;;-1.30;99.90;;;;;;4950900;29;20068;-73
2021/12/21 11:02:27;;;;;;;23.20;11.48;;;-1.30;99.90;;;;;;4936192;29;20066;-72
2021/12/21 11:05:01;;;;;;;23.85;11.10;;;-1.30;99.90;;;;;;4950593;29;20048;-72
2021/12/21 11:10:41;;;;;;;21.83;11.25;;;-1.30;99.90;;;;;;4936186;29;20500;-75
2021/12/21 11:13:11;;;;;;;19.70;9.27;;;-1.20;99.90;;;;;;4931699;29;20038;-73
2021/12/21 11:15:55;;;;;;;18.23;9.80;;;-1.20;99.90;;;;;;4935763;29;20036;-73
2021/12/21 11:18:24;;;;;;;21.65;11.65;;;-1.20;99.90;;;;;;4936013;29;20095;-73
2021/12/21 11:20:56;;;;;;;22.83;10.88;;;-1.10;99.90;;;;;;4935537;29;20458;-72
2021/12/21 11:23:24;;;;;;;21.90;10.95;;;-1.00;99.90;;;;;;4965395;28;20023;-73
2021/12/21 11:25:53;;;;;;;22.05;10.82;;;-0.90;99.90;;;;;;4954782;28;20038;-73
2021/12/21 11:28:29;;;;;;;23.70;11.07;;;-0.80;99.90;;;;;;4953362;29;20023;-73
2021/12/21 11:31:00;;;;;;;21.15;10.30;;;-0.70;99.90;;;;;;4952694;28;20035;-73
2021/12/21 11:33:27;;;;;;;21.25;10.55;;;-0.70;99.90;;;;;;4953234;28;20097;-73
2021/12/21 11:38:38;;;;;;;19.73;9.85;;;-0.60;99.90;;;;;;4954240;28;20038;-75
2021/12/21 11:41:05;;;;;;;23.73;10.10;;;-0.50;99.90;;;;;;4953300;28;20555;-76
2021/12/21 11:43:40;;;;;;;20.63;10.57;;;-0.50;99.90;;;;;;4953454;29;20054;-77
2021/12/21 11:46:11;;;;;;;18.38;9.45;;;-0.50;99.90;;;;;;4953063;28;20481;-74
2021/12/21 11:48:48;;;;;;;15.95;8.55;;;-0.40;99.90;;;;;;4954648;28;20478;-74
2021/12/21 11:51:14;;;;;;;16.92;7.90;;;-0.40;99.90;;;;;;4954317;28;20035;-73
2021/12/21 11:53:40;;;;;;;14.32;7.75;;;-0.40;99.90;;;;;;4954388;28;20089;-75
2021/12/21 11:56:09;;;;;;;20.73;9.75;;;-0.40;99.90;;;;;;4954298;28;20632;-75
2021/12/21 11:58:40;;;;;;;16.33;8.52;;;-0.30;99.90;;;;;;4953157;29;20028;-74
2021/12/21 12:01:13;;;;;;;13.68;6.93;;;-0.40;99.90;;;;;;4953048;29;20027;-75
2021/12/21 12:03:44;;;;;;;19.15;8.43;;;-0.40;99.90;;;;;;4955671;28;20051;-73
2021/12/21 12:06:15;;;;;;;16.95;8.38;;;-0.30;99.90;;;;;;4953530;29;20050;-76
2021/12/21 12:08:44;;;;;;;17.25;8.20;;;-0.30;99.90;;;;;;4953121;29;20543;-74
2021/12/21 12:11:24;;;;;;;13.88;7.85;;;-0.30;99.90;;;;;;4954293;28;20030;-75
2021/12/21 12:14:01;;;;;;;14.50;8.05;;;-0.30;99.90;;;;;;4952868;28;20027;-75
2021/12/21 12:16:40;;;;;;;16.88;8.60;;;-0.20;99.90;;;;;;4954023;28;20050;-77
2021/12/21 12:19:16;;;;;;;16.55;8.90;;;-0.20;99.90;;;;;;4952893;29;20023;-75
2021/12/21 12:21:53;;;;;;;15.52;8.20;;;-0.10;99.90;;;;;;4953972;28;20051;-73
2021/12/21 12:24:20;;;;;;;15.95;8.05;;;-0.10;99.90;;;;;;4954042;28;20031;-75
2021/12/21 12:27:06;;;;;;;16.75;8.40;;;-0.10;99.90;;;;;;4954104;28;20453;-75
2021/12/21 12:29:43;;;;;;;18.65;8.00;;;-0.10;99.90;;;;;;4968892;28;20023;-75
2021/12/21 12:32:09;;;;;;;15.15;7.95;;;-0.10;99.90;;;;;;4953991;28;20489;-74
2021/12/21 12:34:38;;;;;;;16.08;8.45;;;0.00;99.90;;;;;;4952518;29;20082;-74
2021/12/21 12:37:19;;;;;;;17.17;8.40;;;0.00;99.90;;;;;;4953839;28;20035;-74
2021/12/21 12:39:48;;;;;;;15.60;8.73;;;0.00;99.90;;;;;;4953918;28;20019;-74
2021/12/21 12:42:26;;;;;;;15.95;8.13;;;0.10;99.90;;;;;;4953653;28;20035;-74
2021/12/21 12:45:16;;;;;;;18.80;9.07;;;0.10;99.90;;;;;;4954013;28;20033;-75
2021/12/21 12:47:47;;;;;;;18.90;9.68;;;0.10;99.90;;;;;;4954004;28;20027;-74
2021/12/21 12:50:28;;;;;;;15.63;8.55;;;0.10;99.90;;;;;;4954556;28;20031;-73
2021/12/21 12:53:00;;;;;;;19.25;9.43;;;0.20;99.90;;;;;;4957957;28;20030;-75
2021/12/21 12:55:36;;;;;;;16.33;9.20;;;0.20;99.90;;;;;;4956670;29;20396;-75
2021/12/21 12:58:11;;;;;;;20.67;9.68;;;0.20;99.90;;;;;;4956285;29;20027;-75
2021/12/21 13:00:37;;;;;;;16.48;9.38;;;0.20;99.90;;;;;;4957342;28;20118;-72
2021/12/21 13:03:07;;;;;;;17.13;9.35;;;0.20;99.90;;;;;;4967010;28;20085;-74
2021/12/21 13:05:41;;;;;;;19.75;9.23;;;0.20;99.90;;;;;;4976814;28;20035;-75
2021/12/21 13:08:16;;;;;;;;;;;0.20;99.90;;;;;;4971212;28;20039;-72
2021/12/21 13:10:47;;;;;;;19.40;8.90;;;0.20;99.90;;;;;;4958647;28;19914;-69
2021/12/21 13:13:13;;;;;;;28.92;11.93;;;0.30;99.90;;;;;;4956919;28;20067;-75
2021/12/21 13:15:45;;;;;;;27.60;11.35;;;0.20;99.90;;;;;;4956406;28;20429;-76
2021/12/21 13:18:17;;;;;;;19.85;9.85;;;0.30;99.90;;;;;;4957913;28;20059;-75
2021/12/21 13:20:44;;;;;;;23.67;10.15;;;0.40;99.90;;;;;;4957806;28;20058;-75
2021/12/21 13:23:18;;;;;;;16.88;9.18;;;0.30;99.90;;;;;;4956149;28;20392;-75
2021/12/21 13:26:00;;;;;;;;;;;0.40;99.90;;;;;;4956570;28;20393;-74
2021/12/21 13:28:28;;;;;;;18.90;9.85;;;0.30;99.90;;;;;;4957191;28;19906;-73
2021/12/21 13:30:57;;;;;;;35.42;10.35;;;0.40;99.90;;;;;;4957039;28;20038;-73
2021/12/21 13:33:26;;;;;;;22.73;9.88;;;0.50;99.90;;;;;;4956942;28;20449;-73
2021/12/21 13:35:59;;;;;;;15.57;8.70;;;0.40;99.90;;;;;;4957234;28;20584;-74
2021/12/21 13:38:26;;;;;;;24.70;10.38;;;0.40;99.90;;;;;;4955437;28;20031;-73
2021/12/21 13:41:08;;;;;;;18.25;9.68;;;0.50;99.90;;;;;;4955515;28;20090;-74
2021/12/21 13:43:36;;;;;;;23.20;9.85;;;0.50;99.90;;;;;;4956783;28;20020;-74
2021/12/21 13:46:05;;;;;;;18.90;9.80;;;0.50;99.90;;;;;;4955657;29;20516;-73
2021/12/21 13:48:33;;;;;;;20.88;10.20;;;0.50;99.90;;;;;;4955577;28;20024;-73
2021/12/21 13:51:13;;;;;;;18.15;9.65;;;0.60;99.90;;;;;;4955530;28;20160;-74
2021/12/21 13:53:48;;;;;;;21.73;9.80;;;0.50;99.90;;;;;;4956761;28;20393;-75
2021/12/21 13:56:23;;;;;;;19.45;9.48;;;0.60;99.90;;;;;;4956791;28;20035;-74